createdAt,value
2023-04-25T00:18:13.357Z,7.10
2023-04-25T00:37:46.737Z,7.88
2023-04-25T00:48:41.718Z,6.07
2023-04-25T00:59:36.311Z,8.07
2023-04-25T01:02:43.721Z,7.75
2023-04-25T01:30:38.954Z,10.35
2023-04-25T01:46:33.902Z,7.07
2023-04-25T01:58:35.024Z,10.23
2023-04-25T02:09:31.355Z,11.02
2023-04-25T02:13:23.174Z,8.98
2023-04-25T02:54:02.105Z,8.73
2023-04-25T02:57:08.422Z,6.55
2023-04-25T03:00:45.594Z,8.77
2023-04-25T03:31:16.328Z,6.75
2023-04-25T03:39:32.539Z,10.13
2023-04-25T04:18:19.915Z,11.80
2023-04-25T04:33:27.504Z,10.68
2023-04-25T04:36:38.598Z,12.40
2023-04-25T04:39:38.808Z,16.75
2023-04-25T04:42:36.086Z,15.80
2023-04-25T04:45:26.477Z,12.00
2023-04-25T04:48:18.630Z,13.00
2023-04-25T04:51:06.112Z,10.20
2023-04-25T04:54:09.876Z,12.88
2023-04-25T04:57:04.117Z,8.52
2023-04-25T04:59:51.692Z,10.35
2023-04-25T05:02:40.116Z,13.18
2023-04-25T05:05:27.588Z,15.82
2023-04-25T05:08:14.925Z,16.25
2023-04-25T05:11:02.653Z,9.30
2023-04-25T05:13:51.023Z,8.88
2023-04-25T05:16:44.048Z,13.25
2023-04-25T05:19:33.132Z,15.25
2023-04-25T05:22:24.081Z,17.27
2023-04-25T05:25:58.904Z,11.40
2023-04-25T05:29:19.179Z,15.63
2023-04-25T05:32:04.601Z,11.13
2023-04-25T05:34:58.097Z,12.15
2023-04-25T05:37:48.388Z,12.70
2023-04-25T05:40:55.171Z,12.60
2023-04-25T05:47:48.681Z,12.43
2023-04-25T05:51:41.009Z,15.98
2023-04-25T06:29:37.439Z,6.75
2023-04-25T06:32:33.458Z,6.22
2023-04-25T06:35:22.420Z,7.80
2023-04-25T06:38:10.441Z,7.72
2023-04-25T06:40:57.874Z,7.00
2023-04-25T06:43:48.490Z,12.65
2023-04-25T06:46:44.899Z,6.22
2023-04-25T06:49:34.991Z,11.40
2023-04-25T06:52:32.368Z,8.55
2023-04-25T06:55:28.587Z,12.30
2023-04-25T07:08:18.427Z,15.35
2023-04-25T07:10:53.847Z,12.10
2023-04-25T07:39:01.123Z,13.45
2023-04-25T07:42:05.090Z,10.85
2023-04-25T07:53:38.892Z,13.30
2023-04-25T07:56:45.238Z,16.98
2023-04-25T07:59:50.613Z,14.05
2023-04-25T08:02:41.343Z,11.68
2023-04-25T08:05:53.083Z,13.30
2023-04-25T08:08:51.469Z,13.98
2023-04-25T08:11:45.866Z,14.18
2023-04-25T08:46:21.854Z,11.85
2023-04-25T08:49:13.263Z,14.02
2023-04-25T09:00:40.061Z,12.20
2023-04-25T09:11:27.318Z,15.60
2023-04-25T09:18:40.542Z,10.35
2023-04-25T09:24:48.166Z,8.13
2023-04-25T09:28:36.868Z,9.38
2023-04-25T09:32:53.514Z,9.00
2023-04-25T09:35:44.629Z,4.93
2023-04-25T09:38:35.437Z,8.18
2023-04-25T09:41:26.486Z,9.88
2023-04-25T09:44:24.169Z,6.47
2023-04-25T09:47:19.576Z,4.78
2023-04-25T09:50:18.450Z,6.35
2023-04-25T09:53:09.252Z,4.65
2023-04-25T09:56:01.488Z,3.60
2023-04-25T09:58:51.359Z,4.57
2023-04-25T10:01:42.788Z,2.13
2023-04-25T10:04:34.405Z,2.78
2023-04-25T10:07:27.856Z,3.15
2023-04-25T10:10:15.855Z,2.53
2023-04-25T10:13:07.323Z,2.28
2023-04-25T10:15:55.402Z,2.20
2023-04-25T10:18:44.055Z,4.60
2023-04-25T10:22:00.902Z,2.55
2023-04-25T10:25:11.321Z,3.10
2023-04-25T10:28:01.097Z,3.05
2023-04-25T10:31:32.687Z,2.20
2023-04-25T10:38:38.836Z,1.85
2023-04-25T10:41:49.509Z,2.78
2023-04-25T10:48:32.263Z,2.28
2023-04-25T10:51:58.410Z,2.33
2023-04-25T10:54:33.264Z,1.40
2023-04-25T10:57:49.509Z,1.20
2023-04-25T11:00:53.171Z,1.38
2023-04-25T11:03:55.229Z,1.60
2023-04-25T11:07:17.109Z,2.38
2023-04-25T11:13:37.743Z,1.65
2023-04-25T11:16:32.286Z,1.40
2023-04-25T11:19:25.888Z,1.58
2023-04-25T11:29:31.557Z,1.77
2023-04-25T11:32:22.281Z,1.58
2023-04-25T11:35:13.288Z,1.50
2023-04-25T11:38:00.652Z,1.30
2023-04-25T11:40:54.778Z,1.20
2023-04-25T11:44:03.805Z,5.32
2023-04-25T12:05:11.842Z,5.47
2023-04-25T14:27:03.373Z,6.90
2023-04-25T14:29:53.676Z,7.38
2023-04-25T14:35:51.928Z,6.78
2023-04-25T14:46:34.298Z,6.20
2023-04-25T14:54:14.456Z,6.32
2023-04-25T15:01:14.505Z,4.05
2023-04-25T15:04:09.610Z,4.10
2023-04-25T15:06:58.713Z,3.30
2023-04-25T15:21:09.351Z,3.70
2023-04-25T15:23:56.861Z,2.65
2023-04-25T15:26:44.327Z,2.92
2023-04-25T15:46:47.763Z,1.60
2023-04-25T15:53:43.287Z,1.70
2023-04-25T15:56:38.559Z,2.40
2023-04-25T16:00:13.584Z,2.28
2023-04-25T16:03:18.600Z,2.15
2023-04-25T16:06:08.867Z,4.40
2023-04-25T16:08:59.554Z,2.90
2023-04-25T16:11:55.839Z,4.97
2023-04-25T16:14:45.578Z,2.88
2023-04-25T16:17:41.323Z,3.70
2023-04-25T16:20:38.534Z,3.97
2023-04-25T16:23:31.830Z,3.95
2023-04-25T16:26:22.818Z,7.88
2023-04-25T16:29:21.000Z,4.75
2023-04-25T16:32:14.649Z,6.15
2023-04-25T16:35:19.972Z,5.57
2023-04-25T16:38:51.007Z,5.75
2023-04-25T16:57:24.792Z,6.72
2023-04-25T17:08:30.139Z,8.15
2023-04-25T17:30:27.174Z,7.78
2023-04-25T17:40:51.849Z,9.32
2023-04-25T17:44:00.131Z,12.07
2023-04-25T17:47:09.275Z,9.57
2023-04-25T18:01:49.626Z,8.63
2023-04-25T18:08:02.547Z,12.70
2023-04-25T18:11:03.422Z,9.45
2023-04-25T18:13:51.265Z,10.10
2023-04-25T18:16:39.088Z,11.55
2023-04-25T18:19:29.671Z,10.07
2023-04-25T18:22:18.030Z,10.18
2023-04-25T18:25:11.747Z,9.63
2023-04-25T18:28:33.427Z,11.00
2023-04-25T18:31:25.812Z,10.02
2023-04-25T18:34:22.250Z,11.25
2023-04-25T18:37:12.212Z,14.35
2023-04-25T18:40:21.668Z,12.25
2023-04-25T18:43:09.283Z,11.77
2023-04-25T18:45:59.548Z,9.02
2023-04-25T18:48:47.701Z,9.48
2023-04-25T18:51:38.366Z,7.72
2023-04-25T18:54:26.141Z,8.18
2023-04-25T18:57:22.200Z,11.02
2023-04-25T19:00:11.728Z,7.97
2023-04-25T19:03:03.597Z,7.28
2023-04-25T19:05:57.447Z,10.80
2023-04-25T19:09:08.952Z,8.98
2023-04-25T19:16:02.982Z,8.48
2023-04-25T19:18:54.733Z,10.13
2023-04-25T19:21:54.316Z,11.90
2023-04-25T19:24:43.077Z,11.27
2023-04-25T19:28:47.462Z,12.98
2023-04-25T19:35:36.981Z,14.82
2023-04-25T19:38:39.746Z,10.85
2023-04-25T19:46:18.594Z,14.48
2023-04-25T19:49:09.253Z,9.82
2023-04-25T19:52:20.668Z,13.07
2023-04-25T20:06:06.034Z,11.65
2023-04-25T20:17:45.946Z,14.02
2023-04-25T20:21:41.925Z,11.80
2023-04-25T20:28:55.818Z,11.35
2023-04-25T20:39:33.439Z,11.20
2023-04-25T20:51:39.775Z,7.97
2023-04-25T20:58:52.806Z,8.02
2023-04-25T21:19:08.519Z,14.75
2023-04-25T21:49:07.513Z,18.10
2023-04-25T21:51:07.732Z,14.48
2023-04-25T21:59:23.046Z,17.35
2023-04-25T22:01:50.868Z,14.23
2023-04-25T22:04:38.711Z,18.27
2023-04-25T22:07:35.159Z,19.15
2023-04-25T22:10:32.053Z,18.40
2023-04-25T22:13:19.212Z,16.83
2023-04-25T22:19:13.058Z,17.77
2023-04-25T22:22:06.874Z,17.00
2023-04-25T22:24:55.090Z,16.50
2023-04-25T22:27:51.829Z,18.73
2023-04-25T22:30:40.589Z,19.50
2023-04-25T22:33:28.036Z,15.65
2023-04-25T22:36:15.411Z,15.00
2023-04-25T22:39:02.932Z,14.52
2023-04-25T22:41:50.602Z,17.60
2023-04-25T22:44:37.933Z,18.98
2023-04-25T22:47:28.865Z,19.58
2023-04-25T22:50:17.271Z,20.42
2023-04-25T22:53:05.899Z,18.15
2023-04-25T22:55:59.398Z,16.55
2023-04-25T22:58:46.752Z,14.55
2023-04-25T23:01:34.045Z,17.67
2023-04-25T23:04:24.807Z,15.82
2023-04-25T23:07:13.660Z,19.10
2023-04-25T23:10:01.293Z,18.98
2023-04-25T23:12:58.373Z,17.23
2023-04-25T23:15:48.813Z,17.52
2023-04-25T23:18:39.603Z,18.63
2023-04-25T23:21:26.919Z,15.00
2023-04-25T23:24:14.198Z,18.55
2023-04-25T23:27:02.878Z,22.05
2023-04-25T23:29:56.947Z,19.50
2023-04-25T23:32:44.377Z,23.02
2023-04-25T23:35:35.186Z,20.70
2023-04-25T23:38:24.670Z,18.63
2023-04-25T23:41:12.143Z,22.98
2023-04-25T23:43:59.429Z,21.25
2023-04-25T23:46:46.970Z,21.50
2023-04-25T23:49:34.290Z,22.48
2023-04-25T23:52:22.887Z,19.42
2023-04-25T23:55:11.167Z,20.63
2023-04-25T23:57:58.314Z,21.67
